Main page
METAR-TAF:

METAR-TAF

Airports :

Antwerp International Airport

Antwerp, Belgium

latitude: 51-12N, longitude: 004-28E, elevation: 12 m

Current weather observation

The report was made 17 minutes ago, at 22:20 UTC
Wind 11 kt from the West/Southwest
Temperature 14°C
Humidity 67%
Pressure 1017 hPa
Visibility 10 km or more
no clouds below 1500 m and no cumulonimbus

METAR: EBAW 212220Z AUTO 24011KT CAVOK 14/08 Q1017

Time: 00:37 (22:37 UTC)

Forecast

The report was made 2 hours and 37 minutes ago, at 20:00 UTC
Forecast valid from 21 at 21 UTC to 22 at 06 UTC
Wind 13 kt from the West/Southwest
Visibility 10 km or more
Few clouds at a height of 4500 ft

TAF: EBAW 212000Z 2121/2206 24013KT 9999 FEW045

Weather observations and forecasts of more than 4000 airports (METAR and TAF reports).

The available stations are represented by yellow and red dots on the map.

Hover mouse over dot to see the name of the station.

Then click to see weather observations and forecasts.

To change the map : click on the green buttons with a black cross to zoom in, on the green button with a dash to zoom out, or on the green arrows for adjacent maps.


METAR-TAF: